Time;durP1;ratioP1;P1;durP2;ratioP2;P2;SDS_P1;SDS_P2;PMS_P1;PMS_P2;Temp;Humidity;BMP_temperature;BMP_pressure;BME280_temperature;BME280_humidity;BME280_pressure;Samples;Min_cycle;Max_cycle;Signal;HPM_P1;HPM_P2
2023/11/15 00:02:15;;;;;;;6.68;1.60;;;10.30;99.90;;;;;;6213270;23;20103;-87
2023/11/15 00:04:43;;;;;;;8.80;2.20;;;10.30;99.90;;;;;;6186250;23;20067;-87
2023/11/15 00:07:17;;;;;;;4.32;1.48;;;10.30;99.90;;;;;;6213295;23;20075;-86
2023/11/15 00:09:44;;;;;;;4.60;1.20;;;10.40;99.90;;;;;;6188689;23;20020;-86
2023/11/15 00:12:12;;;;;;;6.97;1.70;;;10.40;99.90;;;;;;6188594;23;20055;-87
2023/11/15 00:14:39;;;;;;;5.00;1.38;;;10.40;99.90;;;;;;6161246;23;20027;-83
2023/11/15 00:17:07;;;;;;;6.60;1.70;;;10.40;99.90;;;;;;6212658;23;20021;-83
2023/11/15 00:19:39;;;;;;;7.70;1.98;;;10.40;99.90;;;;;;6188402;23;20029;-84
2023/11/15 00:22:06;;;;;;;5.85;1.58;;;10.40;99.90;;;;;;6212734;23;20071;-84
2023/11/15 00:24:33;;;;;;;6.28;1.48;;;10.40;99.90;;;;;;6161518;23;20020;-83
2023/11/15 00:27:03;;;;;;;4.38;1.10;;;10.40;99.90;;;;;;6188142;23;20029;-88
2023/11/15 00:29:45;;;;;;;4.30;1.20;;;10.40;99.90;;;;;;6188727;23;20024;-87
2023/11/15 00:33:10;;;;;;;7.25;1.20;;;10.40;99.90;;;;;;6193656;23;20226;-86
2023/11/15 00:36:11;;;;;;;5.95;1.45;;;10.40;99.90;;;;;;6213199;23;20028;-87
2023/11/15 00:38:49;;;;;;;6.13;2.00;;;10.40;99.90;;;;;;6168693;23;20017;-87
2023/11/15 00:41:34;;;;;;;4.65;1.13;;;10.40;99.90;;;;;;6191177;23;20020;-86
2023/11/15 00:44:16;;;;;;;5.25;1.48;;;10.30;99.90;;;;;;6190144;23;20131;-86
2023/11/15 00:46:46;;;;;;;5.13;1.30;;;10.40;99.90;;;;;;6188781;23;20027;-86
2023/11/15 00:49:16;;;;;;;6.53;1.30;;;10.40;99.90;;;;;;6213195;23;20058;-86
2023/11/15 00:51:57;;;;;;;7.78;1.42;;;10.40;99.90;;;;;;6213159;23;20484;-83
2023/11/15 00:54:25;;;;;;;4.35;1.52;;;10.40;99.90;;;;;;6185860;23;20099;-85
2023/11/15 00:57:02;;;;;;;4.90;1.20;;;10.40;99.90;;;;;;6213006;23;20017;-85
2023/11/15 00:59:43;;;;;;;4.70;0.95;;;10.40;99.90;;;;;;6188235;23;20095;-85
2023/11/15 01:02:16;;;;;;;5.43;0.95;;;10.40;99.90;;;;;;6165639;23;20032;-85
2023/11/15 01:04:46;;;;;;;2.95;0.90;;;10.40;99.90;;;;;;6185191;23;20031;-84
2023/11/15 01:07:16;;;;;;;3.20;1.02;;;10.40;99.90;;;;;;6187253;23;20063;-84
2023/11/15 01:09:45;;;;;;;2.67;0.85;;;10.40;99.90;;;;;;6187986;23;20020;-84
2023/11/15 01:12:15;;;;;;;4.68;1.13;;;10.40;99.90;;;;;;6187640;23;20024;-83
2023/11/15 01:14:46;;;;;;;5.55;1.98;;;10.40;99.90;;;;;;6186280;23;20037;-83
2023/11/15 01:17:14;;;;;;;6.40;1.60;;;10.40;99.90;;;;;;6188110;23;20021;-83
2023/11/15 01:19:41;;;;;;;5.15;1.90;;;10.40;99.90;;;;;;6187137;23;20324;-82
2023/11/15 01:22:11;;;;;;;4.85;1.67;;;10.40;99.90;;;;;;6187574;23;20083;-84
2023/11/15 01:24:50;;;;;;;3.08;0.90;;;10.40;99.90;;;;;;6210148;23;20021;-82
2023/11/15 01:27:21;;;;;;;5.72;0.88;;;10.40;99.90;;;;;;6188245;23;20016;-83
2023/11/15 01:29:51;;;;;;;2.20;0.57;;;10.30;99.90;;;;;;6187877;23;20017;-82
2023/11/15 01:32:22;;;;;;;4.40;0.70;;;10.30;99.90;;;;;;6211752;23;20103;-82
2023/11/15 01:34:49;;;;;;;0.93;0.30;;;10.20;99.90;;;;;;6184694;23;20020;-83
2023/11/15 01:37:17;;;;;;;3.22;0.40;;;10.10;99.90;;;;;;6187013;23;20024;-83
2023/11/15 01:39:52;;;;;;;2.25;0.63;;;10.10;99.90;;;;;;6212600;23;20025;-85
2023/11/15 01:42:27;;;;;;;;;;;10.10;99.90;;;;;;6189674;23;20025;-85
2023/11/15 01:45:13;;;;;;;1.02;0.30;;;10.10;99.90;;;;;;6210278;23;19971;-85
2023/11/15 01:48:01;;;;;;;1.58;0.30;;;10.10;99.90;;;;;;6186713;23;20350;-84
2023/11/15 01:50:32;;;;;;;4.30;0.68;;;10.00;99.90;;;;;;6187496;23;20974;-87
2023/11/15 01:53:03;;;;;;;2.20;0.50;;;10.10;99.90;;;;;;6210455;23;20024;-87
2023/11/15 01:55:50;;;;;;;3.15;0.80;;;10.00;99.90;;;;;;6211882;23;20095;-87
2023/11/15 01:58:18;;;;;;;3.13;0.60;;;10.00;99.90;;;;;;6211794;23;20100;-86
2023/11/15 02:01:10;;;;;;;1.60;0.38;;;10.00;99.90;;;;;;6187184;23;20055;-88
2023/11/15 02:03:59;;;;;;;2.58;0.73;;;9.90;99.90;;;;;;6186572;23;20028;-88
2023/11/15 02:09:37;;;;;;;1.58;0.40;;;9.90;99.90;;;;;;6204834;23;20052;-87
2023/11/15 02:12:27;;;;;;;1.20;0.20;;;9.90;99.90;;;;;;6212464;23;20108;-88
2023/11/15 02:15:45;;;;;;;1.05;0.30;;;9.90;99.90;;;;;;6196693;23;20020;-87
2023/11/15 02:18:21;;;;;;;4.18;0.30;;;9.90;99.90;;;;;;6189090;23;20114;-85
2023/11/15 02:20:59;;;;;;;2.92;0.43;;;9.80;99.90;;;;;;6188715;23;20021;-85
2023/11/15 02:23:46;;;;;;;1.17;0.32;;;9.80;99.90;;;;;;6187828;23;20430;-84
2023/11/15 02:29:33;;;;;;;1.33;0.30;;;9.70;99.90;;;;;;6179425;23;20025;-84
2023/11/15 02:32:21;;;;;;;1.33;0.50;;;9.70;99.90;;;;;;6189001;23;20422;-85
2023/11/15 02:35:08;;;;;;;0.95;0.40;;;9.80;99.90;;;;;;6188471;23;20091;-85
2023/11/15 02:38:21;;;;;;;0.63;0.30;;;9.80;99.90;;;;;;6187209;23;20107;-85
2023/11/15 02:40:52;;;;;;;2.17;0.35;;;9.80;99.90;;;;;;6212124;23;20104;-85
2023/11/15 02:43:30;;;;;;;2.47;0.40;;;9.80;99.90;;;;;;6191570;23;20378;-85
2023/11/15 02:46:02;;;;;;;2.67;0.40;;;9.90;99.90;;;;;;6209060;23;20080;-85
2023/11/15 02:48:39;;;;;;;1.00;0.30;;;9.90;99.90;;;;;;6236591;23;20046;-85
2023/11/15 02:51:30;;;;;;;0.90;0.30;;;9.90;99.90;;;;;;6203041;23;20025;-86
2023/11/15 02:54:12;;;;;;;1.02;0.30;;;10.00;99.90;;;;;;6189902;23;20021;-86
2023/11/15 02:57:07;;;;;;;;;;;;;;;;;;;;;
2023/11/15 02:59:45;;;;;;;1.60;0.50;;;10.00;99.90;;;;;;6212169;23;20009;-85
2023/11/15 03:02:26;;;;;;;1.30;0.22;;;10.00;99.90;;;;;;6186390;23;20017;-86
2023/11/15 03:05:31;;;;;;;1.23;0.10;;;10.10;99.90;;;;;;6189742;23;20036;-86
2023/11/15 03:08:06;;;;;;;0.60;0.20;;;10.10;99.90;;;;;;6214763;23;20092;-85
2023/11/15 03:11:19;;;;;;;0.35;0.20;;;10.10;99.90;;;;;;6193893;23;20092;-86
2023/11/15 03:19:02;;;;;;;0.85;0.38;;;10.20;99.90;;;;;;6216342;23;20350;-86
2023/11/15 03:21:46;;;;;;;1.13;0.20;;;10.10;99.90;;;;;;6192225;23;20060;-86
2023/11/15 03:24:35;;;;;;;0.83;0.30;;;10.10;99.90;;;;;;6217270;23;20044;-85
2023/11/15 03:27:51;;;;;;;1.20;0.35;;;10.10;99.90;;;;;;6195756;23;20099;-86
2023/11/15 03:31:06;;;;;;;1.50;0.70;;;10.20;99.90;;;;;;6133101;23;20066;-86
2023/11/15 03:33:34;;;;;;;6.82;1.08;;;10.20;99.90;;;;;;6131466;23;20056;-86
2023/11/15 03:36:38;;;;;;;3.88;0.77;;;10.20;99.90;;;;;;6134521;23;20041;-86
2023/11/15 03:39:19;;;;;;;2.97;0.80;;;10.20;99.90;;;;;;6085335;23;20021;-88
2023/11/15 03:41:57;;;;;;;3.72;0.85;;;10.20;99.90;;;;;;6131229;23;20491;-85
2023/11/15 03:44:32;;;;;;;5.30;1.35;;;10.20;99.90;;;;;;6108275;23;20021;-88
2023/11/15 03:47:08;;;;;;;6.70;1.13;;;10.20;99.90;;;;;;6131032;23;20198;-86
2023/11/15 03:49:48;;;;;;;6.13;0.93;;;10.30;99.90;;;;;;6131218;23;20048;-86
2023/11/15 03:52:47;;;;;;;5.07;1.13;;;10.30;99.90;;;;;;6107487;23;20029;-87
2023/11/15 03:55:24;;;;;;;5.97;1.45;;;10.30;99.90;;;;;;6107987;23;20030;-87
2023/11/15 03:58:02;;;;;;;8.20;1.83;;;10.40;99.90;;;;;;6108072;23;20029;-87
2023/11/15 04:01:00;;;;;;;7.45;1.70;;;10.40;99.90;;;;;;6013497;23;20022;-86
2023/11/15 04:04:14;;;;;;;12.90;2.72;;;10.40;99.90;;;;;;6215317;23;20023;-87
2023/11/15 04:07:19;;;;;;;7.97;2.00;;;10.40;99.90;;;;;;6153599;23;20028;-87
2023/11/15 04:10:25;;;;;;;10.10;2.30;;;10.40;99.90;;;;;;6194201;23;20024;-87
2023/11/15 04:12:59;;;;;;;13.38;2.30;;;10.40;99.90;;;;;;6192663;23;20063;-87
2023/11/15 04:18:57;;;;;;;8.93;2.22;;;10.40;99.90;;;;;;6100694;23;20088;-87
2023/11/15 04:21:32;;;;;;;10.52;2.33;;;10.40;99.90;;;;;;6192939;23;20016;-86
2023/11/15 04:24:12;;;;;;;9.15;3.10;;;10.40;99.90;;;;;;6167705;23;20047;-87
2023/11/15 04:26:50;;;;;;;8.40;2.33;;;10.40;99.90;;;;;;6193043;23;20540;-87
2023/11/15 04:30:01;;;;;;;5.43;1.73;;;10.40;99.90;;;;;;6182787;23;20044;-86
2023/11/15 04:32:55;;;;;;;9.18;2.47;;;10.50;99.90;;;;;;6170035;23;20017;-86
2023/11/15 04:35:33;;;;;;;7.75;1.77;;;10.40;99.90;;;;;;6192702;23;20099;-86
2023/11/15 04:38:05;;;;;;;12.85;2.05;;;10.50;99.90;;;;;;6215682;23;20013;-86
2023/11/15 04:41:11;;;;;;;12.70;2.30;;;10.50;99.90;;;;;;6215882;23;20524;-87
2023/11/15 04:44:23;;;;;;;8.95;2.10;;;10.50;99.90;;;;;;6193084;23;20066;-87
2023/11/15 04:47:02;;;;;;;8.90;1.42;;;10.50;99.90;;;;;;6216218;23;20025;-87
2023/11/15 04:49:42;;;;;;;11.68;2.08;;;10.50;99.90;;;;;;6192482;23;20024;-87
2023/11/15 04:52:11;;;;;;;12.30;2.15;;;10.50;99.90;;;;;;6191267;23;20435;-87
2023/11/15 04:54:55;;;;;;;8.10;1.55;;;10.50;99.90;;;;;;6192624;23;20024;-87
2023/11/15 04:57:36;;;;;;;7.47;1.63;;;10.50;99.90;;;;;;6192296;23;20051;-87
2023/11/15 05:00:10;;;;;;;8.65;1.60;;;10.50;99.90;;;;;;6167302;23;20024;-87
2023/11/15 05:03:00;;;;;;;10.93;1.98;;;10.50;99.90;;;;;;6169737;23;20016;-87
2023/11/15 05:06:07;;;;;;;11.82;1.83;;;10.60;99.90;;;;;;6215358;23;20027;-87
2023/11/15 05:08:46;;;;;;;4.53;1.52;;;10.50;99.90;;;;;;6193692;23;20103;-87
2023/11/15 05:11:15;;;;;;;8.15;0.85;;;10.50;99.90;;;;;;6191399;23;20017;-87
2023/11/15 05:14:11;;;;;;;5.35;1.30;;;10.60;99.90;;;;;;6191377;23;20021;-87
2023/11/15 05:17:04;;;;;;;8.65;1.17;;;10.60;99.90;;;;;;6172386;23;20040;-87
2023/11/15 05:19:40;;;;;;;7.78;1.20;;;10.50;99.90;;;;;;6192148;23;20024;-87
2023/11/15 05:22:14;;;;;;;5.88;1.50;;;10.50;99.90;;;;;;6216001;23;20017;-87
2023/11/15 05:24:42;;;;;;;10.27;1.42;;;10.60;99.90;;;;;;6215728;23;20064;-86
2023/11/15 05:27:13;;;;;;;8.20;1.70;;;10.50;99.90;;;;;;6215932;23;20052;-87
2023/11/15 05:29:43;;;;;;;6.13;1.17;;;10.60;99.90;;;;;;6190955;23;20020;-87
2023/11/15 05:32:27;;;;;;;5.30;1.02;;;10.60;99.90;;;;;;6216086;23;20083;-87
2023/11/15 05:35:01;;;;;;;12.60;1.48;;;10.60;99.90;;;;;;6170237;23;20020;-87
2023/11/15 05:37:32;;;;;;;6.30;1.33;;;10.50;99.90;;;;;;6215908;23;20020;-86
2023/11/15 05:40:02;;;;;;;10.80;1.88;;;10.60;99.90;;;;;;6190340;23;20071;-87
2023/11/15 05:42:33;;;;;;;8.82;1.52;;;10.60;99.90;;;;;;6191585;23;20427;-87
2023/11/15 05:45:29;;;;;;;7.90;1.08;;;10.60;99.90;;;;;;6215147;23;20028;-87
2023/11/15 05:48:10;;;;;;;9.93;1.17;;;10.60;99.90;;;;;;6196924;23;20032;-87
2023/11/15 05:50:51;;;;;;;10.65;1.77;;;10.60;99.90;;;;;;6170675;23;20024;-87
2023/11/15 05:53:45;;;;;;;9.65;2.35;;;10.60;99.90;;;;;;6216021;23;20076;-87
2023/11/15 05:56:47;;;;;;;16.70;1.83;;;10.60;99.90;;;;;;6221864;23;20343;-85
2023/11/15 05:59:16;;;;;;;10.32;1.90;;;10.60;99.90;;;;;;6205077;23;20017;-84
2023/11/15 06:01:44;;;;;;;7.43;1.60;;;10.60;99.90;;;;;;6211830;23;20016;-85
2023/11/15 06:04:20;;;;;;;9.13;1.65;;;10.50;99.90;;;;;;6217608;23;20031;-85
2023/11/15 06:06:55;;;;;;;7.63;1.83;;;10.60;99.90;;;;;;6200227;23;20020;-85
2023/11/15 06:09:33;;;;;;;6.97;2.05;;;10.60;99.90;;;;;;6171381;23;20382;-84
2023/11/15 06:12:09;;;;;;;10.27;2.05;;;10.60;99.90;;;;;;6217608;23;20450;-84
2023/11/15 06:14:36;;;;;;;9.20;1.42;;;10.60;99.90;;;;;;6191290;23;20024;-85
2023/11/15 06:17:07;;;;;;;7.85;1.60;;;10.60;99.90;;;;;;6190347;23;20016;-85
2023/11/15 06:19:41;;;;;;;8.20;1.98;;;10.60;99.90;;;;;;6191116;23;20021;-85
2023/11/15 06:22:14;;;;;;;6.72;1.30;;;10.60;99.90;;;;;;6191706;23;20100;-84
2023/11/15 06:24:42;;;;;;;14.02;2.33;;;10.60;99.90;;;;;;6215176;23;20020;-91
2023/11/15 06:27:10;;;;;;;12.57;2.05;;;10.60;99.90;;;;;;6215575;23;20086;-92
2023/11/15 06:29:43;;;;;;;12.98;1.98;;;10.60;99.90;;;;;;6215364;23;20020;-91
2023/11/15 06:32:10;;;;;;;8.30;1.67;;;10.60;99.90;;;;;;6190645;23;20091;-91
2023/11/15 06:34:37;;;;;;;10.75;2.30;;;10.70;99.90;;;;;;6165893;23;20024;-85
2023/11/15 06:37:25;;;;;;;11.23;2.63;;;10.70;99.90;;;;;;6190443;23;20020;-88
2023/11/15 06:39:52;;;;;;;12.60;2.08;;;10.60;99.90;;;;;;6175861;23;20053;-83
2023/11/15 06:42:22;;;;;;;9.48;1.80;;;10.60;99.90;;;;;;6165421;23;20032;-83
2023/11/15 06:44:53;;;;;;;14.02;2.13;;;10.60;99.90;;;;;;6190202;23;20020;-86
2023/11/15 06:47:24;;;;;;;11.20;1.75;;;10.70;99.90;;;;;;6190011;23;20408;-85
2023/11/15 06:49:51;;;;;;;14.23;2.45;;;10.60;99.90;;;;;;6190323;23;20049;-86
2023/11/15 06:52:18;;;;;;;12.20;1.98;;;10.60;99.90;;;;;;6165779;23;20465;-83
2023/11/15 06:54:46;;;;;;;18.02;2.60;;;10.60;99.90;;;;;;6214826;23;20043;-83
2023/11/15 06:57:14;;;;;;;11.30;2.65;;;10.60;99.90;;;;;;6165946;23;20442;-83
2023/11/15 06:59:41;;;;;;;6.60;1.90;;;10.60;99.90;;;;;;6191516;23;20043;-83
2023/11/15 07:02:08;;;;;;;8.45;1.83;;;10.60;99.90;;;;;;6216867;23;20021;-86
2023/11/15 07:04:35;;;;;;;9.48;1.55;;;10.60;99.90;;;;;;6191956;23;20025;-85
2023/11/15 07:07:05;;;;;;;14.75;2.50;;;10.60;99.90;;;;;;6191720;23;20023;-82
2023/11/15 07:09:33;;;;;;;13.07;1.80;;;10.60;99.90;;;;;;6191850;23;20512;-84
2023/11/15 07:12:02;;;;;;;8.38;1.92;;;10.60;99.90;;;;;;6166999;23;20021;-83
2023/11/15 07:14:30;;;;;;;8.05;2.05;;;10.60;99.90;;;;;;6190826;23;20451;-83
2023/11/15 07:16:58;;;;;;;10.05;2.25;;;10.60;99.90;;;;;;6191405;23;20047;-85
2023/11/15 07:19:27;;;;;;;7.93;2.30;;;10.50;99.90;;;;;;6167120;23;20016;-82
2023/11/15 07:21:55;;;;;;;10.35;2.35;;;10.60;99.90;;;;;;6167560;23;20070;-84
2023/11/15 07:24:24;;;;;;;11.32;2.15;;;10.60;99.90;;;;;;6192542;23;20020;-86
2023/11/15 07:26:52;;;;;;;9.63;1.63;;;10.60;99.90;;;;;;6216898;23;20027;-86
2023/11/15 07:29:23;;;;;;;10.50;1.98;;;10.50;99.90;;;;;;6192303;23;20100;-87
2023/11/15 07:32:04;;;;;;;12.18;3.13;;;10.60;99.90;;;;;;6194975;23;20379;-85
2023/11/15 07:34:42;;;;;;;12.82;2.53;;;10.60;99.90;;;;;;6191680;23;20831;-87
2023/11/15 07:37:25;;;;;;;11.68;2.10;;;10.50;99.90;;;;;;6193427;23;20016;-85
2023/11/15 07:40:15;;;;;;;6.03;1.40;;;10.40;99.90;;;;;;6216914;23;20091;-85
2023/11/15 07:42:42;;;;;;;3.63;0.90;;;10.30;99.90;;;;;;6167417;23;20021;-82
2023/11/15 07:45:10;;;;;;;3.72;1.00;;;10.20;99.90;;;;;;6191083;23;20040;-82
2023/11/15 07:47:37;;;;;;;4.43;0.75;;;10.10;99.90;;;;;;6215866;23;20028;-82
2023/11/15 07:50:06;;;;;;;4.65;1.00;;;10.00;99.90;;;;;;6191674;23;20354;-83
2023/11/15 07:52:34;;;;;;;3.47;0.50;;;9.90;99.90;;;;;;6191048;23;20103;-83
2023/11/15 07:55:02;;;;;;;4.13;0.70;;;9.80;99.90;;;;;;6190886;23;20016;-83
2023/11/15 07:57:29;;;;;;;3.90;0.70;;;9.80;99.90;;;;;;6166968;23;20103;-83
2023/11/15 07:59:56;;;;;;;4.40;0.50;;;9.80;99.90;;;;;;6215663;23;20024;-83
2023/11/15 08:02:23;;;;;;;2.22;0.60;;;9.80;99.90;;;;;;6215885;23;20020;-82
2023/11/15 08:04:51;;;;;;;3.38;0.77;;;9.80;99.90;;;;;;6166684;23;20025;-83
2023/11/15 08:07:21;;;;;;;2.03;0.70;;;9.90;99.90;;;;;;6190643;23;20031;-82
2023/11/15 08:09:51;;;;;;;3.47;0.55;;;9.90;99.90;;;;;;6215737;23;20024;-83
2023/11/15 08:12:18;;;;;;;3.30;0.82;;;10.10;99.90;;;;;;6190901;23;20405;-83
2023/11/15 08:14:45;;;;;;;5.40;1.48;;;10.10;99.90;;;;;;6215530;23;20051;-83
2023/11/15 08:17:12;;;;;;;7.18;2.28;;;10.20;99.90;;;;;;6166347;23;20067;-83
2023/11/15 08:19:40;;;;;;;4.03;1.02;;;10.30;99.90;;;;;;6217350;23;20095;-83
2023/11/15 08:22:07;;;;;;;7.45;1.80;;;10.30;99.90;;;;;;6191283;23;20438;-83
2023/11/15 08:24:34;;;;;;;8.73;1.90;;;10.40;99.90;;;;;;6166608;23;20040;-82
2023/11/15 08:27:03;;;;;;;8.70;1.85;;;10.40;99.90;;;;;;6166521;23;20021;-83
2023/11/15 08:29:31;;;;;;;8.23;2.20;;;10.40;99.90;;;;;;6190448;23;20028;-83
2023/11/15 08:31:58;;;;;;;12.52;2.33;;;10.50;99.90;;;;;;6166261;23;20454;-83
2023/11/15 08:34:26;;;;;;;20.38;2.60;;;10.50;99.90;;;;;;6215556;23;20088;-82
2023/11/15 08:36:54;;;;;;;10.63;2.50;;;10.50;99.90;;;;;;6190471;23;20024;-83
2023/11/15 08:39:22;;;;;;;10.95;2.30;;;10.60;99.90;;;;;;6215331;23;20469;-83
2023/11/15 08:41:50;;;;;;;10.73;3.03;;;10.60;99.90;;;;;;6215710;23;20071;-82
2023/11/15 08:44:20;;;;;;;11.60;2.60;;;10.60;99.90;;;;;;6166455;23;20052;-83
2023/11/15 08:46:50;;;;;;;13.35;2.17;;;10.60;99.90;;;;;;6190650;23;20021;-84
2023/11/15 08:49:30;;;;;;;11.07;2.22;;;10.60;99.90;;;;;;6190753;23;20044;-84
2023/11/15 08:52:04;;;;;;;9.55;2.40;;;10.60;99.90;;;;;;6191587;23;20036;-83
2023/11/15 08:54:31;;;;;;;12.77;2.78;;;10.70;99.90;;;;;;6165897;23;20017;-82
2023/11/15 08:56:58;;;;;;;10.18;2.63;;;10.70;99.90;;;;;;6190433;23;20050;-84
2023/11/15 08:59:26;;;;;;;9.32;2.70;;;10.80;99.90;;;;;;6190890;23;20104;-84
2023/11/15 09:01:54;;;;;;;8.18;2.50;;;10.80;99.90;;;;;;6190588;23;20021;-83
2023/11/15 09:04:21;;;;;;;12.90;2.40;;;10.70;99.90;;;;;;6190016;23;20020;-83
2023/11/15 09:06:52;;;;;;;11.63;2.70;;;10.80;99.90;;;;;;6215000;23;20021;-83
2023/11/15 09:09:20;;;;;;;8.93;2.63;;;10.80;99.90;;;;;;6215236;23;20016;-83
2023/11/15 09:11:47;;;;;;;8.25;2.40;;;10.80;99.90;;;;;;6191095;23;20036;-82
2023/11/15 09:14:15;;;;;;;14.52;2.50;;;10.90;99.90;;;;;;6189909;23;20439;-83
2023/11/15 09:16:44;;;;;;;8.95;2.53;;;10.90;99.90;;;;;;6190888;23;20091;-83
2023/11/15 09:19:15;;;;;;;9.52;2.10;;;10.90;99.90;;;;;;6190124;23;20107;-83
2023/11/15 09:21:44;;;;;;;8.25;2.22;;;10.90;99.90;;;;;;6190477;23;20099;-83
2023/11/15 09:24:21;;;;;;;;;;;10.90;99.90;;;;;;6191931;23;20447;-84
2023/11/15 09:26:50;;;;;;;15.68;2.58;;;10.80;99.90;;;;;;6192802;23;20036;-88
2023/11/15 09:29:19;;;;;;;8.77;2.38;;;10.80;99.90;;;;;;6191482;23;20020;-88
2023/11/15 09:31:47;;;;;;;15.43;1.95;;;10.80;99.90;;;;;;6190966;23;20024;-88
2023/11/15 09:34:16;;;;;;;9.57;2.33;;;10.90;99.90;;;;;;6167358;23;20033;-87
2023/11/15 09:36:45;;;;;;;12.75;1.90;;;10.90;99.90;;;;;;6191075;23;20027;-89
2023/11/15 09:39:16;;;;;;;9.65;2.15;;;10.90;99.90;;;;;;6190454;23;20020;-89
2023/11/15 09:41:53;;;;;;;14.38;2.10;;;11.00;99.90;;;;;;6191790;23;20020;-86
2023/11/15 09:44:23;;;;;;;10.82;2.35;;;11.00;99.90;;;;;;6191500;23;20027;-86
2023/11/15 09:46:57;;;;;;;12.60;2.53;;;11.10;99.90;;;;;;6191185;23;20628;-87
2023/11/15 09:49:25;;;;;;;10.60;2.50;;;11.10;99.90;;;;;;6215855;23;20442;-86
2023/11/15 09:51:54;;;;;;;10.68;2.67;;;11.20;99.90;;;;;;6216257;23;20099;-88
2023/11/15 09:54:22;;;;;;;12.63;3.72;;;11.10;99.90;;;;;;6191244;23;20027;-83
2023/11/15 09:56:53;;;;;;;14.02;4.05;;;11.10;99.90;;;;;;6191360;23;20028;-84
2023/11/15 09:59:26;;;;;;;14.50;3.67;;;11.10;99.90;;;;;;6192401;23;20012;-89
2023/11/15 10:01:59;;;;;;;8.95;2.70;;;11.00;99.90;;;;;;6230654;23;20395;-90
2023/11/15 10:04:28;;;;;;;9.15;2.50;;;11.00;99.90;;;;;;6207405;23;20032;-87
2023/11/15 10:06:55;;;;;;;9.10;2.63;;;10.90;99.90;;;;;;6192740;23;20027;-86
2023/11/15 10:09:39;;;;;;;11.88;2.63;;;11.00;99.90;;;;;;6171162;23;20378;-87
2023/11/15 10:12:08;;;;;;;12.73;3.35;;;11.10;99.90;;;;;;6190614;23;20017;-85
2023/11/15 10:14:51;;;;;;;8.32;2.35;;;11.20;99.90;;;;;;6166348;23;20111;-85
2023/11/15 10:17:20;;;;;;;;;;;11.30;99.90;;;;;;6215736;23;20028;-84
2023/11/15 10:19:51;;;;;;;10.38;2.10;;;11.30;99.90;;;;;;6190596;23;20326;-85
2023/11/15 10:22:20;;;;;;;10.38;2.47;;;11.30;99.90;;;;;;6190450;23;20024;-84
2023/11/15 10:25:05;;;;;;;13.10;3.28;;;11.40;99.90;;;;;;6215750;23;20025;-85
2023/11/15 10:27:37;;;;;;;11.23;2.10;;;11.50;99.90;;;;;;6190062;23;20075;-82
2023/11/15 10:30:48;;;;;;;7.63;2.70;;;11.60;99.90;;;;;;6190616;23;20427;-86
2023/11/15 10:33:27;;;;;;;;;;;;;;;;;;;;;
2023/11/15 10:37:34;;;;;;;;;;;;;;;;;;;;;
2023/11/15 10:40:30;;;;;;;10.70;2.38;;;11.80;99.90;;;;;;6125882;23;20024;-90
2023/11/15 10:43:04;;;;;;;7.60;1.15;;;11.70;99.90;;;;;;6190413;23;20075;-88
2023/11/15 10:50:13;;;;;;;18.15;1.92;;;11.70;99.90;;;;;;6140893;23;20075;-86
2023/11/15 10:52:43;;;;;;;11.48;1.85;;;11.80;99.90;;;;;;6189795;23;20020;-86
2023/11/15 10:55:12;;;;;;;7.63;1.67;;;11.80;99.90;;;;;;6190090;23;20450;-85
2023/11/15 10:57:46;;;;;;;13.18;1.75;;;11.80;99.90;;;;;;6190300;23;20099;-86
2023/11/15 11:00:17;;;;;;;12.77;1.70;;;11.70;99.90;;;;;;6214985;23;20024;-87
2023/11/15 11:02:51;;;;;;;7.85;1.25;;;11.70;99.90;;;;;;6190282;23;20048;-84
2023/11/15 11:05:46;;;;;;;11.90;2.50;;;11.80;99.90;;;;;;6189920;23;20017;-83
2023/11/15 11:08:44;;;;;;;9.80;2.05;;;11.80;99.90;;;;;;6188818;23;20055;-82
2023/11/15 11:11:14;;;;;;;15.70;2.65;;;11.90;99.90;;;;;;6214522;23;20016;-83
2023/11/15 11:13:45;;;;;;;11.45;2.22;;;11.90;99.90;;;;;;6214592;23;20020;-83
2023/11/15 11:16:28;;;;;;;13.18;2.38;;;11.90;99.90;;;;;;6189539;23;20029;-84
2023/11/15 11:19:27;;;;;;;9.23;1.50;;;11.90;99.90;;;;;;6191045;23;20013;-83
2023/11/15 11:22:07;;;;;;;4.45;1.40;;;11.90;99.90;;;;;;6214522;23;20461;-84
2023/11/15 11:24:42;;;;;;;11.95;1.83;;;12.00;99.90;;;;;;6190457;23;20025;-83
2023/11/15 11:27:11;;;;;;;9.88;1.90;;;12.10;99.90;;;;;;6213976;23;20390;-83
2023/11/15 11:30:07;;;;;;;6.53;1.55;;;12.10;99.90;;;;;;6214793;23;20020;-85
2023/11/15 11:32:35;;;;;;;6.38;1.88;;;12.20;99.90;;;;;;6214671;23;20025;-84
2023/11/15 11:35:14;;;;;;;8.25;2.00;;;12.20;99.90;;;;;;6191027;23;20048;-84
2023/11/15 11:37:46;;;;;;;5.53;1.48;;;12.20;99.90;;;;;;6214438;23;20029;-84
2023/11/15 11:40:25;;;;;;;7.90;2.42;;;12.30;99.90;;;;;;6190223;23;20386;-82
2023/11/15 11:42:53;;;;;;;9.30;2.03;;;12.40;99.90;;;;;;6189745;23;20024;-89
2023/11/15 11:45:27;;;;;;;12.82;1.73;;;12.40;99.90;;;;;;6217288;23;20393;-90
2023/11/15 11:48:02;;;;;;;11.93;2.22;;;12.40;99.90;;;;;;6169478;23;20438;-90
2023/11/15 11:50:29;;;;;;;7.50;1.33;;;12.30;99.90;;;;;;6192317;23;20079;-91
2023/11/15 11:53:00;;;;;;;7.63;1.60;;;12.30;99.90;;;;;;6192105;23;20021;-90
2023/11/15 11:55:31;;;;;;;6.90;1.30;;;12.40;99.90;;;;;;6191961;23;20024;-91
2023/11/15 11:58:02;;;;;;;13.03;1.37;;;12.50;99.90;;;;;;6192300;23;20062;-90
2023/11/15 12:01:06;;;;;;;9.20;1.48;;;12.50;99.60;;;;;;6192029;23;20497;-89
2023/11/15 12:04:15;;;;;;;9.15;1.95;;;12.60;99.50;;;;;;6216258;23;20075;-93
2023/11/15 12:06:45;;;;;;;6.15;1.50;;;12.50;99.30;;;;;;6168308;23;20512;-92
2023/11/15 12:09:39;;;;;;;6.97;1.40;;;12.40;99.20;;;;;;6192759;23;20024;-88
2023/11/15 12:12:31;;;;;;;8.20;1.75;;;12.30;99.10;;;;;;6195940;23;20090;-93
2023/11/15 12:15:31;;;;;;;9.57;1.23;;;12.20;99.30;;;;;;6213377;23;20096;-93
2023/11/15 12:19:26;;;;;;;;;;;;;;;;;;;;;
2023/11/15 12:23:13;;;;;;;6.57;1.15;;;11.80;99.60;;;;;;6182277;23;20036;-93
2023/11/15 12:26:05;;;;;;;4.95;0.85;;;11.60;99.80;;;;;;6214831;23;20021;-90
2023/11/15 12:29:23;;;;;;;7.03;1.10;;;11.40;99.90;;;;;;6191670;23;20024;-89
2023/11/15 12:31:57;;;;;;;5.13;1.00;;;11.30;99.90;;;;;;6131533;23;20016;-89
2023/11/15 12:34:52;;;;;;;7.78;1.58;;;11.20;99.90;;;;;;6197655;23;20021;-90
2023/11/15 12:37:53;;;;;;;7.22;1.63;;;11.20;99.90;;;;;;6195147;23;20100;-91
2023/11/15 12:41:08;;;;;;;6.35;1.13;;;11.20;99.90;;;;;;6204336;23;20083;-90
2023/11/15 12:44:13;;;;;;;5.93;1.00;;;11.20;99.90;;;;;;6101061;23;20097;-90
2023/11/15 12:47:08;;;;;;;5.75;1.10;;;11.20;99.90;;;;;;6195764;23;20024;-89
2023/11/15 12:50:02;;;;;;;5.50;1.20;;;11.30;99.90;;;;;;6216728;23;20104;-90
2023/11/15 12:53:04;;;;;;;9.10;1.17;;;11.30;99.90;;;;;;6197617;23;20025;-90
2023/11/15 12:55:49;;;;;;;6.53;1.40;;;11.40;99.90;;;;;;6192376;23;20370;-90
2023/11/15 12:59:01;;;;;;;;;;;;;;;;;;;;;
2023/11/15 13:02:11;;;;;;;;;;;;;;;;;;;;;
2023/11/15 13:04:51;;;;;;;4.20;0.80;;;11.00;99.90;;;;;;6216029;23;20293;-88
2023/11/15 13:07:21;;;;;;;3.92;0.88;;;10.90;99.90;;;;;;6191477;23;20095;-89
2023/11/15 13:10:00;;;;;;;7.07;0.80;;;10.70;99.90;;;;;;6194133;23;20024;-89
2023/11/15 13:12:37;;;;;;;4.97;0.68;;;10.60;99.90;;;;;;6190958;23;20024;-89
2023/11/15 13:15:17;;;;;;;6.80;0.95;;;10.50;99.90;;;;;;6191081;23;20028;-92
2023/11/15 13:17:55;;;;;;;7.82;0.80;;;10.40;99.90;;;;;;6192185;23;20414;-92
2023/11/15 13:20:41;;;;;;;4.20;0.50;;;10.30;99.90;;;;;;6228270;23;20016;-92
2023/11/15 13:23:11;;;;;;;6.82;0.90;;;10.30;99.90;;;;;;6216450;23;20020;-90
2023/11/15 13:26:00;;;;;;;5.43;1.20;;;10.30;99.90;;;;;;6201162;23;20390;-88
2023/11/15 13:29:28;;;;;;;5.35;0.50;;;10.20;99.90;;;;;;6216032;23;20442;-89
2023/11/15 13:32:57;;;;;;;;;;;;;;;;;;;;;
2023/11/15 13:36:05;;;;;;;3.28;0.50;;;10.30;99.90;;;;;;6213067;23;20043;-94
2023/11/15 13:38:37;;;;;;;4.50;0.65;;;10.40;99.90;;;;;;6191248;23;20021;-90
2023/11/15 13:41:22;;;;;;;3.45;0.88;;;10.40;99.90;;;;;;6193168;23;20013;-88
2023/11/15 13:43:53;;;;;;;2.30;0.52;;;10.50;99.90;;;;;;6191826;23;20013;-89
2023/11/15 13:46:22;;;;;;;4.00;0.68;;;10.60;99.90;;;;;;6191489;23;20021;-90
2023/11/15 13:48:54;;;;;;;6.72;0.60;;;10.60;99.90;;;;;;6193742;23;20028;-91
2023/11/15 13:51:55;;;;;;;7.85;1.10;;;10.70;99.90;;;;;;6105056;23;20022;-88
2023/11/15 14:07:21;;;;;;;;;;;;;;;;;;;;;
2023/11/15 14:14:09;;;;;;;7.25;1.50;;;10.80;99.90;;;;;;5779742;24;20015;-87
2023/11/15 14:16:37;;;;;;;9.07;1.33;;;10.80;99.90;;;;;;5942586;24;20039;-88
2023/11/15 14:19:11;;;;;;;5.32;0.75;;;10.80;99.90;;;;;;5938804;24;20028;-85
2023/11/15 14:21:39;;;;;;;6.75;1.10;;;10.90;99.90;;;;;;5981531;24;20020;-84
2023/11/15 14:24:08;;;;;;;4.55;0.80;;;10.90;99.90;;;;;;5980930;24;20023;-83
2023/11/15 14:27:08;;;;;;;7.45;1.00;;;10.90;99.90;;;;;;5984303;23;20052;-86
2023/11/15 14:29:38;;;;;;;3.63;0.60;;;10.90;99.90;;;;;;6095473;23;20030;-85
2023/11/15 14:32:07;;;;;;;7.10;0.88;;;10.80;99.90;;;;;;6100366;23;20427;-86
2023/11/15 14:34:46;;;;;;;6.95;1.05;;;10.80;99.90;;;;;;6102816;23;20495;-87